sensor_id;sensor_type;location;lat;lon;timestamp;P1;durP1;ratioP1;P2;durP2;ratioP2
44000;SDS011;29660;42.892;24.710;2023-02-28T04:27:32;23.88;;;21.17;;
44000;SDS011;29660;42.892;24.710;2023-02-28T04:32:55;38.45;;;31.80;;
44000;SDS011;29660;42.892;24.710;2023-02-28T04:38:17;27.38;;;24.35;;
44000;SDS011;29660;42.892;24.710;2023-02-28T04:43:40;25.05;;;22.23;;
44000;SDS011;29660;42.892;24.710;2023-02-28T04:49:03;28.33;;;23.73;;
44000;SDS011;29660;42.892;24.710;2023-02-28T04:54:26;35.65;;;27.63;;
44000;SDS011;29660;42.892;24.710;2023-02-28T04:59:50;40.22;;;31.60;;
44000;SDS011;29660;42.892;24.710;2023-02-28T05:05:13;58.40;;;49.88;;
44000;SDS011;29660;42.892;24.710;2023-02-28T05:10:39;33.17;;;29.67;;
44000;SDS011;29660;42.892;24.710;2023-02-28T05:16:03;40.60;;;32.65;;
44000;SDS011;29660;42.892;24.710;2023-02-28T05:21:27;45.22;;;36.17;;
44000;SDS011;29660;42.892;24.710;2023-02-28T05:26:52;20.00;;;17.10;;
44000;SDS011;29660;42.892;24.710;2023-02-28T05:32:16;19.88;;;17.38;;
44000;SDS011;29660;42.892;24.710;2023-02-28T05:37:39;23.90;;;21.40;;
44000;SDS011;29660;42.892;24.710;2023-02-28T05:43:02;27.63;;;22.88;;
44000;SDS011;29660;42.892;24.710;2023-02-28T05:48:25;22.77;;;19.10;;
44000;SDS011;29660;42.892;24.710;2023-02-28T05:53:49;20.73;;;17.65;;
44000;SDS011;29660;42.892;24.710;2023-02-28T05:59:13;26.10;;;22.20;;
44000;SDS011;29660;42.892;24.710;2023-02-28T06:04:35;39.90;;;29.20;;
44000;SDS011;29660;42.892;24.710;2023-02-28T06:09:59;32.33;;;28.05;;
44000;SDS011;29660;42.892;24.710;2023-02-28T06:15:21;24.55;;;20.58;;
44000;SDS011;29660;42.892;24.710;2023-02-28T06:20:44;17.30;;;15.50;;
44000;SDS011;29660;42.892;24.710;2023-02-28T06:26:16;18.20;;;15.25;;
44000;SDS011;29660;42.892;24.710;2023-02-28T06:31:40;20.27;;;18.10;;
44000;SDS011;29660;42.892;24.710;2023-02-28T06:37:02;21.25;;;17.95;;
44000;SDS011;29660;42.892;24.710;2023-02-28T06:42:25;23.92;;;19.05;;
44000;SDS011;29660;42.892;24.710;2023-02-28T06:47:50;40.13;;;25.92;;
44000;SDS011;29660;42.892;24.710;2023-02-28T06:53:14;20.70;;;17.25;;
44000;SDS011;29660;42.892;24.710;2023-02-28T06:58:37;22.60;;;18.95;;
44000;SDS011;29660;42.892;24.710;2023-02-28T07:04:01;33.30;;;27.05;;
44000;SDS011;29660;42.892;24.710;2023-02-28T07:09:24;48.92;;;37.97;;
44000;SDS011;29660;42.892;24.710;2023-02-28T07:14:53;38.20;;;32.67;;
44000;SDS011;29660;42.892;24.710;2023-02-28T07:20:17;46.90;;;36.13;;
44000;SDS011;29660;42.892;24.710;2023-02-28T07:25:41;22.80;;;17.42;;
44000;SDS011;29660;42.892;24.710;2023-02-28T07:31:04;26.77;;;21.33;;
44000;SDS011;29660;42.892;24.710;2023-02-28T07:36:29;26.60;;;22.80;;
44000;SDS011;29660;42.892;24.710;2023-02-28T07:41:51;27.13;;;21.30;;
44000;SDS011;29660;42.892;24.710;2023-02-28T07:47:19;30.77;;;26.45;;
44000;SDS011;29660;42.892;24.710;2023-02-28T07:52:43;25.15;;;20.92;;
44000;SDS011;29660;42.892;24.710;2023-02-28T07:58:06;28.30;;;24.33;;
44000;SDS011;29660;42.892;24.710;2023-02-28T08:03:29;25.38;;;19.83;;
44000;SDS011;29660;42.892;24.710;2023-02-28T08:08:52;23.30;;;19.48;;
44000;SDS011;29660;42.892;24.710;2023-02-28T08:14:15;21.08;;;16.90;;
44000;SDS011;29660;42.892;24.710;2023-02-28T08:19:38;20.92;;;16.52;;
44000;SDS011;29660;42.892;24.710;2023-02-28T08:25:01;18.40;;;14.45;;
44000;SDS011;29660;42.892;24.710;2023-02-28T08:30:24;17.30;;;13.77;;
44000;SDS011;29660;42.892;24.710;2023-02-28T08:35:46;13.43;;;11.45;;
44000;SDS011;29660;42.892;24.710;2023-02-28T08:41:10;14.60;;;11.85;;
44000;SDS011;29660;42.892;24.710;2023-02-28T08:46:35;19.13;;;13.48;;
44000;SDS011;29660;42.892;24.710;2023-02-28T08:51:57;13.18;;;11.25;;
44000;SDS011;29660;42.892;24.710;2023-02-28T08:57:20;19.30;;;13.38;;
44000;SDS011;29660;42.892;24.710;2023-02-28T09:02:43;19.63;;;14.10;;
44000;SDS011;29660;42.892;24.710;2023-02-28T09:08:06;17.50;;;13.63;;
44000;SDS011;29660;42.892;24.710;2023-02-28T09:13:28;20.38;;;14.57;;
44000;SDS011;29660;42.892;24.710;2023-02-28T09:18:52;16.13;;;13.15;;
44000;SDS011;29660;42.892;24.710;2023-02-28T09:24:15;16.20;;;12.68;;
44000;SDS011;29660;42.892;24.710;2023-02-28T09:29:38;17.17;;;13.48;;
44000;SDS011;29660;42.892;24.710;2023-02-28T09:35:00;22.75;;;16.10;;
44000;SDS011;29660;42.892;24.710;2023-02-28T09:40:24;19.45;;;14.77;;
44000;SDS011;29660;42.892;24.710;2023-02-28T09:45:52;21.73;;;14.93;;
44000;SDS011;29660;42.892;24.710;2023-02-28T09:51:56;19.02;;;14.10;;
44000;SDS011;29660;42.892;24.710;2023-02-28T09:57:36;19.45;;;13.15;;
44000;SDS011;29660;42.892;24.710;2023-02-28T10:09:00;15.98;;;12.98;;
44000;SDS011;29660;42.892;24.710;2023-02-28T10:14:26;17.25;;;12.60;;
44000;SDS011;29660;42.892;24.710;2023-02-28T10:20:14;23.10;;;15.32;;
44000;SDS011;29660;42.892;24.710;2023-02-28T10:25:41;23.33;;;16.98;;
44000;SDS011;29660;42.892;24.710;2023-02-28T10:31:18;17.10;;;13.13;;
44000;SDS011;29660;42.892;24.710;2023-02-28T10:36:41;29.35;;;17.63;;
44000;SDS011;29660;42.892;24.710;2023-02-28T10:42:05;25.52;;;15.05;;
44000;SDS011;29660;42.892;24.710;2023-02-28T10:47:55;28.90;;;18.70;;
44000;SDS011;29660;42.892;24.710;2023-02-28T11:04:44;36.95;;;25.83;;
44000;SDS011;29660;42.892;24.710;2023-02-28T11:10:16;24.42;;;19.70;;
44000;SDS011;29660;42.892;24.710;2023-02-28T11:15:42;24.50;;;19.05;;
44000;SDS011;29660;42.892;24.710;2023-02-28T11:21:17;42.67;;;31.13;;
44000;SDS011;29660;42.892;24.710;2023-02-28T11:26:51;41.88;;;31.50;;
44000;SDS011;29660;42.892;24.710;2023-02-28T11:37:35;23.38;;;16.70;;
44000;SDS011;29660;42.892;24.710;2023-02-28T12:00:00;24.30;;;17.85;;
44000;SDS011;29660;42.892;24.710;2023-02-28T12:28:49;26.02;;;17.48;;
44000;SDS011;29660;42.892;24.710;2023-02-28T12:34:41;25.50;;;16.15;;
44000;SDS011;29660;42.892;24.710;2023-02-28T12:40:13;23.23;;;18.17;;
44000;SDS011;29660;42.892;24.710;2023-02-28T12:45:50;27.67;;;21.15;;
44000;SDS011;29660;42.892;24.710;2023-02-28T12:51:23;18.88;;;15.52;;
44000;SDS011;29660;42.892;24.710;2023-02-28T13:02:23;39.03;;;29.73;;
44000;SDS011;29660;42.892;24.710;2023-02-28T13:07:59;36.40;;;30.65;;
44000;SDS011;29660;42.892;24.710;2023-02-28T13:13:28;19.85;;;15.98;;
44000;SDS011;29660;42.892;24.710;2023-02-28T13:18:52;26.27;;;21.05;;
44000;SDS011;29660;42.892;24.710;2023-02-28T13:29:55;19.55;;;15.68;;
44000;SDS011;29660;42.892;24.710;2023-02-28T13:35:34;21.20;;;16.80;;
44000;SDS011;29660;42.892;24.710;2023-02-28T13:41:21;17.35;;;14.82;;
44000;SDS011;29660;42.892;24.710;2023-02-28T13:52:18;23.58;;;19.70;;
44000;SDS011;29660;42.892;24.710;2023-02-28T14:03:26;19.85;;;17.48;;
44000;SDS011;29660;42.892;24.710;2023-02-28T14:14:53;13.70;;;11.73;;
44000;SDS011;29660;42.892;24.710;2023-02-28T14:20:16;19.85;;;17.55;;
44000;SDS011;29660;42.892;24.710;2023-02-28T14:31:53;26.77;;;22.33;;
44000;SDS011;29660;42.892;24.710;2023-02-28T14:37:29;56.63;;;42.42;;
44000;SDS011;29660;42.892;24.710;2023-02-28T14:42:58;35.45;;;28.13;;
44000;SDS011;29660;42.892;24.710;2023-02-28T14:48:22;39.83;;;32.53;;
44000;SDS011;29660;42.892;24.710;2023-02-28T14:53:50;21.30;;;18.58;;
44000;SDS011;29660;42.892;24.710;2023-02-28T14:59:24;26.85;;;24.00;;
44000;SDS011;29660;42.892;24.710;2023-02-28T15:05:02;17.83;;;14.85;;
44000;SDS011;29660;42.892;24.710;2023-02-28T15:10:42;25.42;;;20.52;;
44000;SDS011;29660;42.892;24.710;2023-02-28T15:16:50;27.10;;;19.95;;
44000;SDS011;29660;42.892;24.710;2023-02-28T15:22:08;31.02;;;27.40;;
44000;SDS011;29660;42.892;24.710;2023-02-28T15:27:41;22.92;;;19.88;;
44000;SDS011;29660;42.892;24.710;2023-02-28T15:38:34;19.63;;;16.38;;
44000;SDS011;29660;42.892;24.710;2023-02-28T15:44:16;26.77;;;16.92;;
44000;SDS011;29660;42.892;24.710;2023-02-28T15:49:49;17.27;;;12.90;;
44000;SDS011;29660;42.892;24.710;2023-02-28T15:55:21;49.38;;;34.40;;
44000;SDS011;29660;42.892;24.710;2023-02-28T16:00:59;40.47;;;28.35;;
44000;SDS011;29660;42.892;24.710;2023-02-28T16:12:08;60.00;;;46.80;;
44000;SDS011;29660;42.892;24.710;2023-02-28T16:17:35;54.63;;;40.22;;
44000;SDS011;29660;42.892;24.710;2023-02-28T16:23:00;24.85;;;19.05;;
44000;SDS011;29660;42.892;24.710;2023-02-28T16:28:25;45.08;;;34.17;;
44000;SDS011;29660;42.892;24.710;2023-02-28T16:33:52;46.27;;;34.10;;
44000;SDS011;29660;42.892;24.710;2023-02-28T16:39:14;74.38;;;49.20;;
44000;SDS011;29660;42.892;24.710;2023-02-28T16:44:37;69.68;;;51.50;;
44000;SDS011;29660;42.892;24.710;2023-02-28T16:49:59;61.28;;;47.08;;
44000;SDS011;29660;42.892;24.710;2023-02-28T16:55:24;27.42;;;22.38;;
44000;SDS011;29660;42.892;24.710;2023-02-28T17:00:48;51.78;;;36.83;;
44000;SDS011;29660;42.892;24.710;2023-02-28T17:06:20;47.50;;;38.08;;
44000;SDS011;29660;42.892;24.710;2023-02-28T17:11:45;37.97;;;28.83;;
44000;SDS011;29660;42.892;24.710;2023-02-28T17:17:09;25.10;;;19.95;;
44000;SDS011;29660;42.892;24.710;2023-02-28T17:22:40;55.75;;;36.97;;
44000;SDS011;29660;42.892;24.710;2023-02-28T17:28:03;24.92;;;20.17;;
44000;SDS011;29660;42.892;24.710;2023-02-28T17:33:25;25.08;;;17.48;;
44000;SDS011;29660;42.892;24.710;2023-02-28T17:38:48;34.20;;;25.92;;
44000;SDS011;29660;42.892;24.710;2023-02-28T17:44:10;34.33;;;27.83;;
44000;SDS011;29660;42.892;24.710;2023-02-28T17:49:32;33.97;;;28.45;;
44000;SDS011;29660;42.892;24.710;2023-02-28T17:54:54;61.47;;;44.45;;
44000;SDS011;29660;42.892;24.710;2023-02-28T18:00:17;32.47;;;26.00;;
44000;SDS011;29660;42.892;24.710;2023-02-28T18:05:40;53.65;;;47.70;;
44000;SDS011;29660;42.892;24.710;2023-02-28T18:11:02;42.15;;;31.75;;
44000;SDS011;29660;42.892;24.710;2023-02-28T18:16:24;97.07;;;73.55;;
44000;SDS011;29660;42.892;24.710;2023-02-28T18:21:48;30.20;;;24.50;;
44000;SDS011;29660;42.892;24.710;2023-02-28T18:27:11;45.13;;;36.70;;
44000;SDS011;29660;42.892;24.710;2023-02-28T18:32:33;36.90;;;28.85;;
44000;SDS011;29660;42.892;24.710;2023-02-28T18:37:55;40.97;;;30.00;;
44000;SDS011;29660;42.892;24.710;2023-02-28T18:43:17;28.90;;;22.73;;
44000;SDS011;29660;42.892;24.710;2023-02-28T18:48:39;40.30;;;25.80;;
44000;SDS011;29660;42.892;24.710;2023-02-28T18:54:02;41.00;;;30.67;;
44000;SDS011;29660;42.892;24.710;2023-02-28T18:59:24;30.73;;;25.88;;
44000;SDS011;29660;42.892;24.710;2023-02-28T19:04:46;38.90;;;31.95;;
44000;SDS011;29660;42.892;24.710;2023-02-28T19:10:09;29.65;;;22.55;;
44000;SDS011;29660;42.892;24.710;2023-02-28T19:15:32;29.80;;;22.48;;
44000;SDS011;29660;42.892;24.710;2023-02-28T19:20:54;37.35;;;25.92;;
44000;SDS011;29660;42.892;24.710;2023-02-28T19:26:20;20.48;;;15.23;;
44000;SDS011;29660;42.892;24.710;2023-02-28T19:31:44;20.63;;;14.57;;
44000;SDS011;29660;42.892;24.710;2023-02-28T19:37:06;29.15;;;22.25;;
44000;SDS011;29660;42.892;24.710;2023-02-28T19:42:29;22.27;;;17.25;;
44000;SDS011;29660;42.892;24.710;2023-02-28T19:47:54;32.35;;;23.58;;
44000;SDS011;29660;42.892;24.710;2023-02-28T19:53:16;25.30;;;15.85;;
44000;SDS011;29660;42.892;24.710;2023-02-28T19:58:38;17.33;;;13.38;;
44000;SDS011;29660;42.892;24.710;2023-02-28T20:04:01;21.88;;;16.20;;
44000;SDS011;29660;42.892;24.710;2023-02-28T20:09:28;19.17;;;11.60;;
44000;SDS011;29660;42.892;24.710;2023-02-28T20:14:52;17.45;;;11.88;;
44000;SDS011;29660;42.892;24.710;2023-02-28T20:20:17;35.33;;;17.33;;
44000;SDS011;29660;42.892;24.710;2023-02-28T20:25:40;18.23;;;13.13;;
44000;SDS011;29660;42.892;24.710;2023-02-28T20:31:08;17.92;;;13.48;;
44000;SDS011;29660;42.892;24.710;2023-02-28T20:36:35;20.58;;;14.43;;
44000;SDS011;29660;42.892;24.710;2023-02-28T20:41:58;21.20;;;16.63;;
44000;SDS011;29660;42.892;24.710;2023-02-28T20:47:20;16.27;;;12.85;;
44000;SDS011;29660;42.892;24.710;2023-02-28T20:52:42;17.55;;;12.88;;
44000;SDS011;29660;42.892;24.710;2023-02-28T20:58:05;13.80;;;8.88;;
44000;SDS011;29660;42.892;24.710;2023-02-28T21:03:27;11.90;;;10.40;;
44000;SDS011;29660;42.892;24.710;2023-02-28T21:08:49;24.27;;;19.58;;
44000;SDS011;29660;42.892;24.710;2023-02-28T21:14:12;11.25;;;8.75;;
44000;SDS011;29660;42.892;24.710;2023-02-28T21:19:36;18.55;;;14.80;;
44000;SDS011;29660;42.892;24.710;2023-02-28T21:24:58;15.63;;;12.77;;
44000;SDS011;29660;42.892;24.710;2023-02-28T21:30:20;14.63;;;11.98;;
44000;SDS011;29660;42.892;24.710;2023-02-28T21:35:43;24.15;;;18.52;;
44000;SDS011;29660;42.892;24.710;2023-02-28T21:41:09;15.45;;;11.13;;
44000;SDS011;29660;42.892;24.710;2023-02-28T21:46:33;10.85;;;7.88;;
44000;SDS011;29660;42.892;24.710;2023-02-28T21:52:09;9.43;;;7.50;;
44000;SDS011;29660;42.892;24.710;2023-02-28T21:57:31;9.35;;;7.53;;
44000;SDS011;29660;42.892;24.710;2023-02-28T22:02:56;7.63;;;5.72;;
44000;SDS011;29660;42.892;24.710;2023-02-28T22:08:18;8.60;;;6.60;;
44000;SDS011;29660;42.892;24.710;2023-02-28T22:13:40;8.27;;;6.97;;
44000;SDS011;29660;42.892;24.710;2023-02-28T22:19:04;8.88;;;6.20;;
44000;SDS011;29660;42.892;24.710;2023-02-28T22:24:28;9.48;;;5.10;;
44000;SDS011;29660;42.892;24.710;2023-02-28T22:29:50;8.98;;;6.13;;
44000;SDS011;29660;42.892;24.710;2023-02-28T22:35:15;7.22;;;4.72;;
44000;SDS011;29660;42.892;24.710;2023-02-28T22:40:40;9.98;;;6.35;;
44000;SDS011;29660;42.892;24.710;2023-02-28T22:46:02;8.60;;;5.40;;
44000;SDS011;29660;42.892;24.710;2023-02-28T22:51:26;6.82;;;4.82;;
44000;SDS011;29660;42.892;24.710;2023-02-28T22:56:49;9.00;;;5.88;;
44000;SDS011;29660;42.892;24.710;2023-02-28T23:02:11;7.80;;;5.63;;
44000;SDS011;29660;42.892;24.710;2023-02-28T23:07:33;10.80;;;6.43;;
44000;SDS011;29660;42.892;24.710;2023-02-28T23:12:55;7.68;;;5.75;;
44000;SDS011;29660;42.892;24.710;2023-02-28T23:18:17;9.93;;;6.18;;
44000;SDS011;29660;42.892;24.710;2023-02-28T23:23:39;8.48;;;6.57;;
44000;SDS011;29660;42.892;24.710;2023-02-28T23:29:01;13.43;;;8.95;;
44000;SDS011;29660;42.892;24.710;2023-02-28T23:34:23;10.25;;;6.70;;
44000;SDS011;29660;42.892;24.710;2023-02-28T23:39:51;9.23;;;6.00;;
44000;SDS011;29660;42.892;24.710;2023-02-28T23:45:13;11.45;;;7.80;;
44000;SDS011;29660;42.892;24.710;2023-02-28T23:50:36;19.65;;;12.65;;
44000;SDS011;29660;42.892;24.710;2023-02-28T23:55:58;21.77;;;14.27;;
